EST,Max TemperatureF,Mean TemperatureF,Min TemperatureF,Max Dew PointF,MeanDew PointF,Min DewpointF,Max Humidity, Mean Humidity, Min Humidity, Max Sea Level PressureIn, Mean Sea Level PressureIn, Min Sea Level PressureIn, Max VisibilityMiles, Mean VisibilityMiles, Min VisibilityMiles, Max Wind SpeedMPH, Mean Wind SpeedMPH, Max Gust SpeedMPH,PrecipitationIn, CloudCover, Events, WindDirDegrees
2012-11-1,46,44,42,43,38,34,93,79,66,29.63,29.52,29.44,10,9,9,18,12,25,0.08,8,Rain,275
2012-11-2,41,39,37,34,32,30,81,74,59,29.93,29.78,29.63,10,9,9,17,12,24,0.01,8,Rain,311
2012-11-3,42,38,35,32,30,27,81,71,51,30.13,30.05,29.94,10,9,9,17,11,25,0.00,7,,320
2012-11-4,37,35,33,27,25,23,70,63,52,30.16,30.14,30.12,10,9,9,14,9,20,0.00,8,,335
2012-11-5,36,34,32,25,21,18,70,56,36,30.23,30.20,30.14,10,9,9,10,7,,0.00,7,,342
2012-11-6,39,34,30,28,24,19,70,62,44,30.23,30.17,30.09,10,9,9,16,7,20,0.00,7,Rain,46
2012-11-7,42,38,35,32,25,19,75,57,34,30.15,30.11,30.08,10,9,9,21,12,32,0.00,4,,57
2012-11-8,45,38,30,30,24,19,70,56,37,30.20,30.14,30.11,10,9,9,13,8,,0.00,0,,304
2012-11-9,50,43,36,41,36,28,87,71,58,30.18,30.15,30.12,10,6,3,14,7,,0.12,8,Rain,265
2012-11-10,48,44,40,46,43,39,93,87,76,30.29,30.22,30.16,10,5,2,24,9,30,0.08,7,Rain-Thunderstorm,72
2012-11-11,58,52,46,48,45,41,93,77,55,30.22,30.17,30.11,10,7,3,20,11,21,0.00,5,Rain-Thunderstorm,105
2012-11-12,59,50,41,52,44,30,94,81,52,30.17,30.03,29.88,10,8,3,28,11,36,0.20,8,Rain,245
2012-11-13,40,38,36,28,23,19,70,54,31,30.55,30.38,30.19,10,9,9,25,17,31,0.00,8,Rain,273
2012-11-14,42,38,35,28,26,23,70,58,35,30.63,30.57,30.50,10,9,9,9,6,,0.00,5,,234
2012-11-15,45,41,37,34,31,27,75,65,52,30.50,30.41,30.35,10,9,9,14,7,,0.00,6,,73
2012-11-16,46,39,32,39,33,29,87,73,50,30.51,30.44,30.36,10,9,7,7,3,,0.00,2,,252
2012-11-17,47,40,34,41,37,34,100,88,60,30.65,30.61,30.51,10,5,1,8,4,,0.00,1,,68
2012-11-18,48,43,38,41,39,36,100,83,56,30.64,30.60,30.51,10,6,2,18,10,23,0.00,1,,68
2012-11-19,46,42,38,41,39,37,93,88,78,30.50,30.40,30.26,9,6,4,14,9,,0.00,2,,78
2012-11-20,49,44,38,43,41,37,100,89,76,30.25,30.19,30.14,8,4,1,10,4,,0.00,5,,70
2012-11-21,45,39,33,43,40,34,100,96,79,30.27,30.22,30.18,6,2,0,6,2,,0.01,3,Fog,133
2012-11-22,53,46,38,46,43,39,100,86,67,30.20,30.09,29.93,9,6,2,14,7,,0.00,2,,201
2012-11-23,53,45,37,48,38,27,94,73,40,29.90,29.69,29.62,10,9,6,38,16,44,0.00,7,Rain,232
2012-11-24,39,34,30,28,21,14,81,59,28,29.96,29.86,29.72,10,9,9,30,21,38,0.00,2,Rain,286
2012-11-25,38,34,30,30,24,18,81,67,49,29.94,29.87,29.79,10,8,4,21,15,24,0.00,8,Rain-Snow,256
2012-11-26,39,36,32,30,26,21,81,67,49,30.23,30.08,29.87,10,9,9,21,17,25,0.00,8,Rain,260
2012-11-27,39,34,30,25,22,18,70,58,35,30.31,30.27,30.24,10,9,5,17,8,,0.00,7,Rain,278
2012-11-28,40,36,31,28,25,19,81,66,47,30.25,30.21,30.15,10,8,2,22,16,31,0.00,7,Rain-Snow,264
2012-11-29,47,40,32,32,28,23,75,64,40,30.30,30.23,30.17,10,9,4,21,14,26,0.00,5,,267
2012-11-30,28,26,24,25,21,16,93,76,52,30.45,30.40,30.31,10,7,2,29,18,34,0.00,8,Snow,53